createdAt,value
2022-10-06T00:01:59.848Z,1.08
2022-10-06T00:04:49.827Z,1.30
2022-10-06T00:07:18.963Z,1.83
2022-10-06T00:09:49.580Z,1.50
2022-10-06T00:12:20.909Z,1.92
2022-10-06T00:14:49.739Z,1.83
2022-10-06T00:17:20.559Z,1.60
2022-10-06T00:19:49.312Z,2.00
2022-10-06T00:22:19.349Z,1.50
2022-10-06T00:24:51.530Z,1.50
2022-10-06T00:27:21.051Z,1.63
2022-10-06T00:29:51.860Z,1.50
2022-10-06T00:32:24.657Z,1.33
2022-10-06T00:34:57.029Z,1.70
2022-10-06T00:37:30.912Z,1.40
2022-10-06T00:40:04.261Z,1.50
2022-10-06T00:42:33.643Z,1.55
2022-10-06T00:45:04.657Z,1.30
2022-10-06T00:47:35.035Z,1.70
2022-10-06T00:50:03.802Z,1.40
2022-10-06T00:52:33.112Z,1.48
2022-10-06T00:55:09.448Z,1.35
2022-10-06T00:57:40.507Z,1.63
2022-10-06T01:00:10.833Z,1.30
2022-10-06T01:02:41.645Z,1.60
2022-10-06T01:05:24.050Z,2.70
2022-10-06T01:07:52.840Z,1.20
2022-10-06T01:10:23.049Z,1.77
2022-10-06T01:12:58.934Z,1.88
2022-10-06T01:15:30.244Z,1.30
2022-10-06T01:18:03.088Z,1.98
2022-10-06T01:20:33.819Z,1.38
2022-10-06T01:23:05.772Z,1.40
2022-10-06T01:25:39.569Z,1.50
2022-10-06T01:28:18.300Z,1.48
2022-10-06T01:31:31.324Z,1.33
2022-10-06T01:34:05.641Z,1.70
2022-10-06T01:36:40.777Z,1.40
2022-10-06T01:39:15.163Z,1.75
2022-10-06T01:42:04.168Z,1.45
2022-10-06T01:44:54.259Z,1.40
2022-10-06T01:47:44.388Z,1.80
2022-10-06T01:50:33.397Z,1.15
2022-10-06T01:53:23.699Z,1.40
2022-10-06T01:56:14.020Z,2.03
2022-10-06T01:59:02.640Z,1.33
2022-10-06T02:01:32.263Z,2.00
2022-10-06T02:04:02.863Z,1.30
2022-10-06T02:06:32.229Z,1.57
2022-10-06T02:09:43.281Z,1.70
2022-10-06T02:12:16.953Z,2.40
2022-10-06T02:14:45.571Z,1.60
2022-10-06T02:17:16.836Z,1.93
2022-10-06T02:20:05.662Z,1.53
2022-10-06T02:22:44.064Z,1.90
2022-10-06T02:25:15.653Z,2.10
2022-10-06T02:27:49.528Z,1.63
2022-10-06T02:30:19.183Z,1.80
2022-10-06T02:33:01.539Z,1.50
2022-10-06T02:35:58.998Z,1.97
2022-10-06T02:38:27.744Z,1.67
2022-10-06T02:41:01.425Z,1.63
2022-10-06T02:43:33.965Z,1.63
2022-10-06T02:46:06.361Z,1.43
2022-10-06T02:48:57.031Z,1.23
2022-10-06T02:51:25.405Z,1.50
2022-10-06T02:54:13.848Z,1.93
2022-10-06T02:57:02.193Z,1.50
2022-10-06T02:59:55.098Z,1.53
2022-10-06T03:02:26.011Z,1.67
2022-10-06T03:04:57.388Z,1.73
2022-10-06T03:07:30.362Z,2.50
2022-10-06T03:10:00.322Z,1.50
2022-10-06T03:12:28.844Z,1.73
2022-10-06T03:15:00.744Z,1.63
2022-10-06T03:17:32.620Z,1.80
2022-10-06T03:20:04.153Z,1.80
2022-10-06T03:22:32.781Z,1.77
2022-10-06T03:25:09.340Z,1.87
2022-10-06T03:27:40.176Z,1.70
2022-10-06T03:30:13.690Z,2.07
2022-10-06T03:32:42.309Z,1.67
2022-10-06T03:35:11.246Z,1.83
2022-10-06T03:37:40.068Z,2.10
2022-10-06T03:40:09.524Z,1.52
2022-10-06T03:42:38.049Z,1.75
2022-10-06T03:45:07.205Z,1.70
2022-10-06T03:47:37.187Z,1.52
2022-10-06T03:50:08.699Z,1.30
2022-10-06T03:52:37.800Z,1.73
2022-10-06T03:55:09.025Z,2.43
2022-10-06T03:57:37.641Z,1.23
2022-10-06T04:00:07.733Z,1.87
2022-10-06T04:02:45.897Z,1.60
2022-10-06T04:05:15.012Z,1.37
2022-10-06T04:07:43.508Z,1.40
2022-10-06T04:10:12.095Z,1.60
2022-10-06T04:12:42.568Z,2.10
2022-10-06T04:15:11.990Z,1.57
2022-10-06T04:17:51.253Z,1.60
2022-10-06T04:20:20.190Z,1.40
2022-10-06T04:22:49.764Z,1.60
2022-10-06T04:25:20.745Z,1.60
2022-10-06T04:27:52.735Z,1.70
2022-10-06T04:30:21.462Z,1.20
2022-10-06T04:32:51.176Z,1.90
2022-10-06T04:35:19.633Z,1.43
2022-10-06T04:37:47.853Z,1.53
2022-10-06T04:40:16.310Z,1.58
2022-10-06T04:42:45.235Z,1.90
2022-10-06T04:45:13.725Z,1.77
2022-10-06T04:47:41.985Z,1.43
2022-10-06T04:50:11.898Z,1.60
2022-10-06T04:52:40.261Z,1.50
2022-10-06T04:55:08.829Z,1.80
2022-10-06T04:57:37.139Z,1.73
2022-10-06T05:00:25.314Z,1.23
2022-10-06T05:02:55.413Z,1.80
2022-10-06T05:05:25.048Z,1.20
2022-10-06T05:07:53.273Z,1.50
2022-10-06T05:10:21.670Z,1.90
2022-10-06T05:12:49.962Z,1.50
2022-10-06T05:15:18.376Z,1.67
2022-10-06T05:17:46.606Z,1.47
2022-10-06T05:20:14.879Z,1.30
2022-10-06T05:22:45.445Z,1.40
2022-10-06T05:25:15.173Z,1.87
2022-10-06T05:27:43.522Z,1.93
2022-10-06T05:30:12.438Z,1.40
2022-10-06T05:32:40.738Z,1.43
2022-10-06T05:35:09.561Z,1.20
2022-10-06T05:37:37.860Z,1.53
2022-10-06T05:40:08.328Z,1.63
2022-10-06T05:42:36.641Z,1.87
2022-10-06T05:45:04.964Z,1.53
2022-10-06T05:47:33.296Z,1.33
2022-10-06T05:50:02.065Z,1.87
2022-10-06T05:52:30.303Z,1.60
2022-10-06T05:54:58.665Z,1.80
2022-10-06T05:57:29.448Z,1.50
2022-10-06T05:59:57.673Z,1.77
2022-10-06T06:02:26.170Z,1.17
2022-10-06T06:04:57.288Z,1.93
2022-10-06T06:07:25.699Z,1.37
2022-10-06T06:09:54.041Z,2.03
2022-10-06T06:12:22.450Z,1.53
2022-10-06T06:15:09.843Z,1.47
2022-10-06T06:17:38.317Z,1.50
2022-10-06T06:20:07.061Z,1.40
2022-10-06T06:22:35.903Z,1.53
2022-10-06T06:25:04.262Z,1.80
2022-10-06T06:27:32.897Z,1.57
2022-10-06T06:30:02.699Z,1.53
2022-10-06T06:32:31.058Z,1.50
2022-10-06T06:34:59.353Z,1.27
2022-10-06T06:37:31.427Z,1.17
2022-10-06T06:40:00.205Z,1.40
2022-10-06T06:42:28.449Z,1.23
2022-10-06T06:44:56.784Z,1.53
2022-10-06T06:47:26.840Z,2.27
2022-10-06T06:49:55.242Z,1.23
2022-10-06T06:52:26.008Z,1.67
2022-10-06T06:54:54.323Z,1.70
2022-10-06T06:57:22.919Z,1.20
2022-10-06T06:59:51.201Z,1.60
2022-10-06T07:02:19.826Z,1.60
2022-10-06T07:04:49.808Z,1.50
2022-10-06T07:07:19.496Z,1.80
2022-10-06T07:09:47.845Z,1.27
2022-10-06T07:12:16.358Z,1.30
2022-10-06T07:14:58.662Z,1.40
2022-10-06T07:17:44.648Z,1.20
2022-10-06T07:20:32.291Z,1.30
2022-10-06T07:23:18.605Z,1.27
2022-10-06T07:25:47.096Z,0.93
2022-10-06T07:28:17.232Z,1.95
2022-10-06T07:30:46.933Z,1.40
2022-10-06T07:33:15.750Z,1.20
2022-10-06T07:35:45.664Z,1.43
2022-10-06T07:38:14.114Z,1.40
2022-10-06T07:40:46.449Z,1.10
2022-10-06T07:43:23.995Z,1.47
2022-10-06T07:45:53.828Z,1.47
2022-10-06T07:48:23.604Z,1.52
2022-10-06T07:50:54.596Z,1.70
2022-10-06T07:53:23.131Z,1.33
2022-10-06T07:55:52.038Z,1.13
2022-10-06T07:58:22.499Z,1.10
2022-10-06T08:00:52.818Z,1.30
2022-10-06T08:03:21.512Z,1.00
2022-10-06T08:05:51.393Z,1.10
2022-10-06T08:08:21.158Z,1.30
2022-10-06T08:10:54.413Z,1.50
2022-10-06T08:13:23.031Z,1.48
2022-10-06T08:15:51.698Z,1.02
2022-10-06T08:18:44.245Z,1.40
2022-10-06T08:21:13.660Z,1.30
2022-10-06T08:23:43.485Z,0.93
2022-10-06T08:26:12.275Z,1.00
2022-10-06T08:28:41.366Z,1.30
2022-10-06T08:31:11.763Z,0.95
2022-10-06T08:33:42.265Z,1.33
2022-10-06T08:36:12.016Z,1.07
2022-10-06T08:38:40.385Z,1.00
2022-10-06T08:41:19.956Z,1.50
2022-10-06T08:43:49.209Z,0.80
2022-10-06T08:46:19.930Z,0.90
2022-10-06T08:48:52.288Z,0.95
2022-10-06T08:51:27.217Z,1.30
2022-10-06T08:54:01.240Z,1.20
2022-10-06T08:56:33.481Z,1.15
2022-10-06T08:59:04.401Z,1.10
2022-10-06T09:01:34.308Z,1.05
2022-10-06T09:04:03.279Z,1.15
2022-10-06T09:06:38.142Z,1.08
2022-10-06T09:09:13.857Z,1.05
2022-10-06T09:11:53.628Z,1.20
2022-10-06T09:14:24.493Z,1.08
2022-10-06T09:16:54.940Z,1.43
2022-10-06T09:19:27.838Z,0.90
2022-10-06T09:22:00.171Z,1.20
2022-10-06T09:24:31.777Z,1.23
2022-10-06T09:27:01.383Z,1.10
2022-10-06T09:29:31.381Z,1.05
2022-10-06T09:31:59.951Z,1.48
2022-10-06T09:34:38.971Z,1.35
2022-10-06T09:37:09.258Z,1.23
2022-10-06T09:39:38.180Z,1.40
2022-10-06T09:42:13.207Z,1.17
2022-10-06T09:45:00.819Z,1.33
2022-10-06T09:47:36.609Z,0.95
2022-10-06T09:50:16.567Z,1.10
2022-10-06T09:52:48.173Z,1.13
2022-10-06T09:55:17.877Z,1.42
2022-10-06T09:57:51.475Z,1.48
2022-10-06T10:00:29.993Z,1.23
2022-10-06T10:02:59.889Z,1.20
2022-10-06T10:05:30.609Z,1.40
2022-10-06T10:08:09.187Z,1.58
2022-10-06T10:10:38.354Z,0.82
2022-10-06T10:13:19.565Z,1.33
2022-10-06T10:15:53.712Z,1.75
2022-10-06T10:18:26.566Z,1.10
2022-10-06T10:20:57.622Z,1.20
2022-10-06T10:23:31.156Z,1.35
2022-10-06T10:26:08.044Z,1.55
2022-10-06T10:28:56.873Z,1.20
2022-10-06T10:31:31.369Z,1.35
2022-10-06T10:34:12.510Z,1.20
2022-10-06T10:36:53.173Z,1.50
2022-10-06T10:39:30.604Z,1.02
2022-10-06T10:42:02.996Z,1.08
2022-10-06T10:44:33.269Z,1.13
2022-10-06T10:47:08.343Z,1.02
2022-10-06T10:49:36.797Z,1.02
2022-10-06T10:52:09.146Z,0.70
2022-10-06T10:54:42.119Z,1.17
2022-10-06T10:57:13.713Z,0.90
2022-10-06T10:59:46.799Z,1.23
2022-10-06T11:02:19.343Z,1.00
2022-10-06T11:04:52.121Z,1.15
2022-10-06T11:07:23.454Z,1.30
2022-10-06T11:09:56.431Z,1.52
2022-10-06T11:12:33.261Z,1.27
2022-10-06T11:15:04.876Z,0.90
2022-10-06T11:17:45.275Z,1.08
2022-10-06T11:20:22.151Z,1.15
2022-10-06T11:22:54.319Z,1.27
2022-10-06T11:25:24.868Z,1.20
2022-10-06T11:27:57.757Z,1.05
2022-10-06T11:30:26.591Z,1.30
2022-10-06T11:33:04.001Z,1.15
2022-10-06T11:35:36.188Z,1.30
2022-10-06T11:38:07.391Z,0.98
2022-10-06T11:40:41.034Z,1.30
2022-10-06T11:43:13.893Z,1.00
2022-10-06T11:45:46.843Z,1.20
2022-10-06T11:48:25.649Z,1.00
2022-10-06T11:50:55.637Z,0.70
2022-10-06T11:53:28.803Z,1.15
2022-10-06T11:56:16.074Z,0.98
2022-10-06T11:58:59.189Z,1.60
2022-10-06T12:01:43.988Z,1.30
2022-10-06T12:04:23.451Z,1.30
2022-10-06T12:07:02.670Z,1.45
2022-10-06T12:09:52.312Z,0.90
2022-10-06T12:12:40.010Z,1.25
2022-10-06T12:17:08.854Z,1.20
2022-10-06T12:18:09.956Z,1.00
2022-10-06T12:20:45.873Z,1.20
2022-10-06T12:23:19.836Z,1.27
2022-10-06T12:25:52.593Z,1.52
2022-10-06T12:28:25.953Z,1.23
2022-10-06T12:31:02.425Z,0.98
2022-10-06T12:33:38.055Z,1.73
2022-10-06T12:36:16.656Z,1.00
2022-10-06T12:38:45.877Z,1.00
2022-10-06T12:41:15.272Z,1.42
2022-10-06T12:43:53.954Z,1.88
2022-10-06T12:46:27.828Z,1.15
2022-10-06T12:49:13.939Z,0.95
2022-10-06T12:51:44.533Z,1.15
2022-10-06T12:54:19.594Z,0.90
2022-10-06T12:56:58.964Z,0.90
2022-10-06T12:59:28.541Z,1.38
2022-10-06T13:01:58.282Z,1.08
2022-10-06T13:04:34.218Z,1.13
2022-10-06T13:07:08.682Z,1.10
2022-10-06T13:09:39.699Z,1.13
2022-10-06T13:12:25.498Z,1.05
2022-10-06T13:15:23.563Z,0.90
2022-10-06T13:17:53.355Z,1.00
2022-10-06T13:20:24.311Z,1.02
2022-10-06T13:23:08.687Z,0.95
2022-10-06T13:25:44.729Z,1.00
2022-10-06T13:28:23.210Z,0.93
2022-10-06T13:30:52.506Z,1.00
2022-10-06T13:33:21.153Z,0.98
2022-10-06T13:35:51.876Z,1.35
2022-10-06T13:38:25.725Z,1.55
2022-10-06T13:41:07.215Z,1.25
2022-10-06T13:43:41.943Z,1.48
2022-10-06T13:46:11.441Z,1.23
2022-10-06T13:48:45.388Z,1.20
2022-10-06T13:51:17.081Z,1.00
2022-10-06T13:56:39.817Z,1.08
2022-10-06T13:59:28.460Z,1.52
2022-10-06T14:01:56.944Z,1.30
2022-10-06T14:04:28.921Z,1.40
2022-10-06T14:06:58.930Z,1.27
2022-10-06T14:09:29.443Z,1.10
2022-10-06T14:12:19.839Z,1.20
2022-10-06T14:15:18.194Z,1.50
2022-10-06T14:17:46.639Z,1.55
2022-10-06T14:20:33.143Z,1.30
2022-10-06T14:23:01.520Z,1.17
2022-10-06T14:25:31.262Z,1.63
2022-10-06T14:27:59.772Z,1.48
2022-10-06T14:30:28.115Z,1.20
2022-10-06T14:32:57.042Z,1.92
2022-10-06T14:35:25.559Z,1.20
2022-10-06T14:37:54.089Z,1.65
2022-10-06T14:40:23.964Z,1.23
2022-10-06T14:42:54.047Z,1.63
2022-10-06T14:45:23.218Z,1.35
2022-10-06T14:47:53.293Z,1.42
2022-10-06T14:50:23.729Z,1.25
2022-10-06T14:52:52.062Z,1.40
2022-10-06T14:55:20.309Z,1.40
2022-10-06T14:57:48.727Z,1.60
2022-10-06T15:00:20.859Z,1.50
2022-10-06T15:02:49.281Z,1.20
2022-10-06T15:05:18.024Z,1.00
2022-10-06T15:08:16.859Z,1.10
2022-10-06T15:10:53.261Z,1.38
2022-10-06T15:13:21.778Z,1.77
2022-10-06T15:15:59.236Z,1.25
2022-10-06T15:18:27.846Z,1.25
2022-10-06T15:20:56.188Z,1.52
2022-10-06T15:23:24.521Z,1.10
2022-10-06T15:26:11.053Z,1.05
2022-10-06T15:28:57.272Z,1.52
2022-10-06T15:31:27.682Z,1.00
2022-10-06T15:33:56.222Z,1.45
2022-10-06T15:36:25.507Z,1.40
2022-10-06T15:38:54.519Z,1.20
2022-10-06T15:41:23.090Z,1.42
2022-10-06T15:43:57.453Z,1.00
2022-10-06T15:46:32.503Z,1.95
2022-10-06T15:49:02.362Z,1.17
2022-10-06T15:51:31.535Z,1.30
2022-10-06T15:54:00.435Z,1.17
2022-10-06T15:56:29.716Z,1.08
2022-10-06T15:58:57.997Z,1.00
2022-10-06T16:01:27.985Z,1.13
2022-10-06T16:03:59.272Z,1.23
2022-10-06T16:06:41.342Z,1.25
2022-10-06T16:09:10.732Z,1.20
2022-10-06T16:11:39.609Z,1.77
2022-10-06T16:14:08.270Z,1.48
2022-10-06T16:16:41.199Z,1.10
2022-10-06T16:19:13.223Z,1.13
2022-10-06T16:21:41.995Z,1.45
2022-10-06T16:24:10.459Z,1.37
2022-10-06T16:26:39.035Z,1.25
2022-10-06T16:29:07.352Z,1.07
2022-10-06T16:31:35.825Z,1.40
2022-10-06T16:34:04.175Z,0.95
2022-10-06T16:36:33.836Z,1.50
2022-10-06T16:39:02.101Z,1.25
2022-10-06T16:41:30.474Z,1.08
2022-10-06T16:43:58.953Z,1.27
2022-10-06T16:46:28.565Z,1.27
2022-10-06T16:48:57.534Z,1.30
2022-10-06T16:51:26.748Z,1.45
2022-10-06T16:53:59.547Z,1.00
2022-10-06T16:56:28.937Z,1.27
2022-10-06T16:58:58.091Z,1.50
2022-10-06T17:01:27.415Z,1.88
2022-10-06T17:03:59.349Z,1.92
2022-10-06T17:06:32.715Z,1.77
2022-10-06T17:09:02.919Z,1.35
2022-10-06T17:11:31.142Z,1.58
2022-10-06T17:13:59.461Z,1.42
2022-10-06T17:16:28.719Z,1.63
2022-10-06T17:18:58.056Z,1.83
2022-10-06T17:21:44.912Z,1.58
2022-10-06T17:24:15.223Z,1.50
2022-10-06T17:26:44.538Z,1.50
2022-10-06T17:29:14.190Z,1.98
2022-10-06T17:31:43.897Z,1.60
2022-10-06T17:34:13.761Z,1.20
2022-10-06T17:36:47.402Z,1.27
2022-10-06T17:39:18.280Z,1.40
2022-10-06T17:41:47.146Z,1.50
2022-10-06T17:44:19.023Z,2.05
2022-10-06T17:46:48.165Z,1.45
2022-10-06T17:49:17.307Z,1.53
2022-10-06T17:51:46.535Z,1.48
2022-10-06T17:54:16.777Z,1.27
2022-10-06T17:56:47.114Z,1.40
2022-10-06T17:59:16.576Z,1.53
2022-10-06T18:01:45.388Z,1.58
2022-10-06T18:04:16.661Z,1.33
2022-10-06T18:06:47.809Z,1.48
2022-10-06T18:09:16.358Z,1.77
2022-10-06T18:11:48.545Z,1.70
2022-10-06T18:14:18.090Z,2.30
2022-10-06T18:16:49.831Z,1.60
2022-10-06T18:19:26.132Z,1.80
2022-10-06T18:21:56.546Z,1.70
2022-10-06T18:24:25.900Z,2.03
2022-10-06T18:26:56.752Z,1.50
2022-10-06T18:29:26.063Z,1.80
2022-10-06T18:31:55.902Z,1.80
2022-10-06T18:37:34.908Z,1.83
2022-10-06T18:40:08.821Z,1.98
2022-10-06T18:42:38.915Z,2.37
2022-10-06T18:45:25.666Z,2.40
2022-10-06T18:48:12.521Z,2.10
2022-10-06T18:50:41.203Z,1.87
2022-10-06T18:53:10.186Z,1.93
2022-10-06T18:55:39.016Z,1.95
2022-10-06T18:58:13.641Z,2.23
2022-10-06T19:00:43.353Z,2.50
2022-10-06T19:03:11.836Z,2.13
2022-10-06T19:05:40.615Z,1.95
2022-10-06T19:08:11.192Z,2.00
2022-10-06T19:10:59.962Z,1.70
2022-10-06T19:13:29.845Z,1.80
2022-10-06T19:16:00.979Z,2.00
2022-10-06T19:18:43.747Z,1.90
2022-10-06T19:21:12.762Z,1.87
2022-10-06T19:23:41.816Z,1.90
2022-10-06T19:26:30.404Z,2.40
2022-10-06T19:29:05.330Z,2.07
2022-10-06T19:31:55.341Z,2.27
2022-10-06T19:34:24.917Z,2.40
2022-10-06T19:36:53.985Z,2.13
2022-10-06T19:39:23.617Z,1.90
2022-10-06T19:42:10.454Z,2.20
2022-10-06T19:44:43.363Z,1.77
2022-10-06T19:47:14.796Z,2.13
2022-10-06T19:49:46.205Z,2.85
2022-10-06T19:52:15.060Z,2.00
2022-10-06T19:54:43.965Z,2.00
2022-10-06T19:57:15.191Z,2.30
2022-10-06T19:59:45.118Z,2.17
2022-10-06T20:02:16.697Z,2.20
2022-10-06T20:04:45.469Z,2.00
2022-10-06T20:07:16.520Z,2.30
2022-10-06T20:09:48.318Z,2.10
2022-10-06T20:12:27.668Z,2.07
2022-10-06T20:15:01.356Z,2.17
2022-10-06T20:17:33.862Z,1.87
2022-10-06T20:20:04.442Z,2.10
2022-10-06T20:22:32.785Z,2.00
2022-10-06T20:25:07.736Z,1.98
2022-10-06T20:27:36.922Z,1.70
2022-10-06T20:30:07.901Z,1.90
2022-10-06T20:32:42.341Z,2.13
2022-10-06T20:35:10.857Z,2.00
2022-10-06T20:37:41.765Z,2.77
2022-10-06T20:40:28.560Z,1.57
2022-10-06T20:42:59.151Z,1.70
2022-10-06T20:45:30.829Z,1.80
2022-10-06T20:48:00.227Z,1.93
2022-10-06T20:50:33.503Z,1.83
2022-10-06T20:53:01.910Z,1.60
2022-10-06T20:55:31.872Z,2.30
2022-10-06T20:58:00.211Z,2.23
2022-10-06T21:00:30.508Z,1.73
2022-10-06T21:02:58.957Z,2.83
2022-10-06T21:05:36.690Z,2.13
2022-10-06T21:08:06.477Z,2.47
2022-10-06T21:10:36.794Z,2.30
2022-10-06T21:13:09.561Z,2.00
2022-10-06T21:15:45.376Z,2.10
2022-10-06T21:18:13.736Z,2.27
2022-10-06T21:20:45.216Z,2.27
2022-10-06T21:23:14.918Z,2.10
2022-10-06T21:25:47.042Z,2.60
2022-10-06T21:28:25.154Z,1.80
2022-10-06T21:30:55.399Z,2.67
2022-10-06T21:33:30.334Z,2.57
2022-10-06T21:36:03.931Z,2.70
2022-10-06T21:38:48.772Z,2.17
2022-10-06T21:41:38.513Z,2.17
2022-10-06T21:44:11.698Z,2.33
2022-10-06T21:46:56.704Z,2.40
2022-10-06T21:49:33.987Z,1.77
2022-10-06T21:52:23.023Z,2.67
2022-10-06T21:55:15.991Z,2.37
2022-10-06T21:57:46.530Z,1.73
2022-10-06T22:00:16.862Z,2.20
2022-10-06T22:02:47.453Z,2.23
2022-10-06T22:05:22.342Z,1.97
2022-10-06T22:08:16.995Z,2.30
2022-10-06T22:10:49.820Z,2.47
2022-10-06T22:13:20.624Z,1.83
2022-10-06T22:15:48.964Z,2.53
2022-10-06T22:18:21.992Z,2.30
2022-10-06T22:20:57.027Z,2.07
2022-10-06T22:23:45.882Z,1.90
2022-10-06T22:26:19.327Z,2.20
2022-10-06T22:28:53.114Z,2.10
2022-10-06T22:31:31.364Z,1.75
2022-10-06T22:34:07.742Z,2.13
2022-10-06T22:36:38.749Z,2.10
2022-10-06T22:42:08.406Z,2.20
2022-10-06T22:45:04.386Z,2.17
2022-10-06T22:47:34.637Z,1.93
2022-10-06T22:50:05.724Z,1.83
2022-10-06T22:52:36.571Z,2.17
2022-10-06T22:55:13.156Z,2.10
2022-10-06T22:57:46.013Z,1.83
2022-10-06T23:00:19.278Z,2.00
2022-10-06T23:02:49.235Z,2.03
2022-10-06T23:05:20.149Z,2.03
2022-10-06T23:07:51.815Z,2.13
2022-10-06T23:10:24.460Z,2.37
2022-10-06T23:12:55.978Z,2.07
2022-10-06T23:15:25.224Z,1.70
2022-10-06T23:17:54.186Z,2.40
2022-10-06T23:20:26.341Z,2.30
2022-10-06T23:22:56.713Z,2.30
2022-10-06T23:25:32.782Z,1.90
2022-10-06T23:28:02.045Z,2.07
2022-10-06T23:30:30.421Z,2.27
2022-10-06T23:33:02.140Z,1.63
2022-10-06T23:35:34.108Z,2.07
2022-10-06T23:38:02.473Z,1.87
2022-10-06T23:40:31.506Z,2.28
2022-10-06T23:43:04.240Z,2.40
2022-10-06T23:45:32.916Z,1.90
2022-10-06T23:50:58.159Z,2.20
2022-10-06T23:53:31.456Z,1.80
2022-10-06T23:56:04.476Z,2.00
2022-10-06T23:58:34.544Z,2.10
